KDAB/DAB METAR and TAF weather

Enter ICAO airport designator
Station Type Date Time Source
KDAB METAR 2018/01/24 06:53 UTC NOAA

KDAB 240653Z 32007KT 10SM CLR 13/11 A3013 RMK AO2 SLP201 T01330106 $


Station Type Date Time Source
KDAB Decoded METAR 2018/01/24 06:53 UTC NOAA

DAYTONA BEACH INTERNATIONAL, FL, United States (KDAB) 29-10N 81-04W 9M
Jan 24, 2018 - 01:53 AM EST / 2018.01.24 0653 UTC
Wind: from the NW (320 degrees) at 8 MPH (7 KT):0
Visibility: 10 mile(s):0
Sky conditions: clear
Temperature: 55.9 F (13.3 C)
Dew Point: 51.1 F (10.6 C)
Relative Humidity: 83%
Pressure (altimeter): 30.13 in. Hg (1020 hPa)
ob: KDAB 240653Z 32007KT 10SM CLR 13/11 A3013 RMK AO2 SLP201 T01330106
cycle: 7

Station Type Date Time Source
KDAB TAF 2018/01/24 06:36 UTC NOAA

TAF KDAB 240530Z 2406/2506 29006KT P6SM FEW025 SCT250
FM240900 35006KT P6SM SCT250
FM241500 01007KT P6SM SCT200
FM250100 34007KT P6SM BKN250


Example: see airport list